CST,Max TemperatureF,Mean TemperatureF,Min TemperatureF,Max Dew PointF,MeanDew PointF,Min DewpointF,Max Humidity, Mean Humidity, Min Humidity, Max Sea Level PressureIn, Mean Sea Level PressureIn, Min Sea Level PressureIn, Max VisibilityMiles, Mean VisibilityMiles, Min VisibilityMiles, Max Wind SpeedMPH, Mean Wind SpeedMPH, Max Gust SpeedMPH,PrecipitationIn, CloudCover, Events, WindDirDegrees
2012-1-1,50,41,32,30,25,18,75,52,29,30.64,30.50,30.17,10,10,10,38,15,47,0.00,3,,326
2012-1-2,42,32,22,16,12,8,68,48,27,30.78,30.67,30.53,10,10,10,17,8,23,0.00,1,,325
2012-1-3,55,38,21,32,25,16,76,57,38,30.51,30.25,30.07,10,10,10,25,12,32,0.00,3,,178
2012-1-4,58,45,31,32,28,26,82,56,30,30.38,30.28,30.13,10,10,10,17,9,23,0.00,1,,305
2012-1-5,61,45,28,37,32,25,85,62,39,30.24,30.08,29.88,10,10,10,15,8,18,0.00,1,,204
2012-1-6,57,43,29,35,29,22,92,62,32,30.09,29.90,29.81,10,10,10,21,10,31,0.00,2,,322
2012-1-7,52,41,29,27,22,18,75,51,26,30.20,30.15,30.09,10,10,10,16,9,20,0.00,5,,41
2012-1-8,50,40,30,27,24,22,70,52,34,30.32,30.26,30.20,10,10,10,17,10,22,0.00,5,,27
2012-1-9,53,39,24,28,25,21,88,62,35,30.32,30.24,30.13,10,10,10,10,5,13,0.00,1,,289
2012-1-10,57,40,22,32,26,22,92,60,28,30.13,29.96,29.76,10,10,10,8,3,10,0.00,1,,225
2012-1-11,45,35,24,34,25,11,92,71,50,30.11,29.87,29.69,10,9,2,41,18,52,T,6,Snow,335
2012-1-12,32,23,14,7,1,-5,61,41,20,30.18,30.14,30.10,10,10,10,30,17,36,0.00,2,,308
2012-1-13,45,30,14,22,13,1,73,53,33,30.22,30.14,30.05,10,10,10,10,5,14,0.00,3,,222
2012-1-14,50,39,27,25,19,17,69,48,27,30.29,30.20,30.03,10,10,10,28,12,35,0.00,1,,294
2012-1-15,64,48,31,41,27,20,66,46,25,30.17,29.95,29.73,10,10,10,32,18,38,0.00,2,,174
2012-1-16,55,43,30,45,33,20,77,58,38,29.87,29.72,29.66,10,10,10,31,14,39,T,3,,265
2012-1-17,33,24,14,16,11,8,73,56,39,30.44,30.31,29.94,10,10,10,33,15,41,0.00,1,,346
2012-1-18,40,26,11,23,15,8,92,66,40,30.39,30.15,29.86,10,10,10,22,11,28,0.00,4,,181
2012-1-19,36,29,22,23,17,11,81,62,43,30.04,29.96,29.81,10,10,10,23,11,29,0.00,3,,38
2012-1-20,35,28,21,20,15,9,77,64,51,30.20,29.93,29.81,10,10,10,24,13,30,0.00,4,,24
2012-1-21,36,25,14,22,13,7,80,62,43,30.23,30.03,29.71,10,10,9,22,11,26,0.00,3,,107
2012-1-22,62,46,30,41,36,29,92,61,30,29.80,29.54,29.34,10,8,4,35,21,43,T,5,Rain-Snow,221
2012-1-23,53,40,27,30,24,21,85,57,28,30.07,30.00,29.83,10,10,10,20,9,26,0.00,2,,255
2012-1-24,62,47,31,38,27,21,71,50,28,30.14,30.07,30.01,10,10,10,25,10,32,0.03,7,,152
2012-1-25,52,41,29,41,34,28,89,69,48,30.17,30.07,29.96,10,10,8,21,8,25,T,6,Rain,345
2012-1-26,60,42,24,32,22,16,92,55,18,30.01,29.97,29.93,10,9,6,30,10,37,0.00,0,,331
2012-1-27,59,42,24,34,25,18,74,56,38,30.32,29.98,29.83,10,10,10,33,14,41,0.00,5,,99
2012-1-28,50,34,17,21,15,4,84,50,15,30.49,30.39,30.33,10,10,10,22,10,29,0.00,1,,259
2012-1-29,58,39,20,31,24,16,84,59,33,30.33,30.24,30.12,10,10,10,17,7,22,0.00,4,,199
2012-1-30,62,46,30,44,36,29,92,66,39,30.11,29.96,29.86,10,10,10,28,13,33,0.00,4,,183
2012-1-31,65,52,38,50,41,30,96,63,30,30.10,29.93,29.81,10,10,10,20,10,26,0.00,4,,259